TimePDT,TemperatureF,Dew PointF,Humidity,Sea Level PressureIn,VisibilityMPH,Wind Direction,Wind SpeedMPH,Gust SpeedMPH,PrecipitationIn,Events,Conditions,WindDirDegrees,DateUTC
12:52 AM,61.0,43.0,52,29.85,-9999.0,ENE,5.8,-,N/A,,Unknown,60,2013-08-21 07:52:00
1:52 AM,61.0,41.0,48,29.84,-9999.0,NE,3.5,-,N/A,,Unknown,40,2013-08-21 08:52:00
2:52 AM,61.0,39.9,46,29.83,-9999.0,NE,5.8,-,N/A,,Unknown,50,2013-08-21 09:52:00
3:52 AM,57.9,37.0,46,29.83,-9999.0,NE,5.8,-,N/A,,Unknown,50,2013-08-21 10:52:00
4:52 AM,61.0,36.0,39,29.83,-9999.0,NE,5.8,-,N/A,,Unknown,40,2013-08-21 11:52:00
5:52 AM,59.0,34.0,39,29.84,-9999.0,NE,4.6,-,N/A,,Unknown,50,2013-08-21 12:52:00
6:00 AM,-9999,-9999,N/A,-9999,-9999.0,North,-9999.0,-,N/A,,Unknown,0,2013-08-21 13:00:00
6:52 AM,62.1,36.0,38,29.85,-9999.0,NE,5.8,-,N/A,,Unknown,40,2013-08-21 13:52:00
7:52 AM,73.9,37.9,27,29.85,-9999.0,Calm,Calm,-,N/A,,Unknown,0,2013-08-21 14:52:00
8:52 AM,84.9,33.1,16,29.83,-9999.0,Calm,Calm,-,N/A,,Unknown,0,2013-08-21 15:52:00
9:52 AM,93.0,30.0,11,29.83,-9999.0,SSW,4.6,-,N/A,,Unknown,200,2013-08-21 16:52:00
10:52 AM,95.0,39.9,15,29.83,-9999.0,SSW,8.1,-,N/A,,Unknown,200,2013-08-21 17:52:00
11:52 AM,96.1,37.0,13,29.83,-9999.0,SW,11.5,-,N/A,,Unknown,220,2013-08-21 18:52:00
12:52 PM,97.0,37.9,13,29.82,-9999.0,SW,11.5,23.0,N/A,,Unknown,230,2013-08-21 19:52:00
1:52 PM,99.0,39.9,13,29.81,-9999.0,West,10.4,18.4,N/A,,Unknown,270,2013-08-21 20:52:00
2:52 PM,99.0,39.0,13,29.79,-9999.0,West,11.5,19.6,N/A,,Unknown,260,2013-08-21 21:52:00
3:52 PM,98.1,43.0,15,29.78,-9999.0,WSW,11.5,17.3,N/A,,Unknown,250,2013-08-21 22:52:00
4:52 PM,96.1,39.9,14,29.78,-9999.0,WNW,12.7,-,N/A,,Unknown,290,2013-08-21 23:52:00
5:52 PM,91.9,41.0,17,29.80,-9999.0,WNW,12.7,-,N/A,,Unknown,290,2013-08-22 00:52:00
6:52 PM,84.9,50.0,30,29.81,-9999.0,SSW,8.1,-,N/A,,Unknown,210,2013-08-22 01:52:00
7:52 PM,80.1,50.0,35,29.83,-9999.0,West,5.8,-,N/A,,Unknown,260,2013-08-22 02:52:00
8:52 PM,75.9,51.1,42,29.84,-9999.0,Calm,Calm,-,N/A,,Unknown,0,2013-08-22 03:52:00
9:52 PM,68.0,48.9,50,29.86,-9999.0,ENE,4.6,-,N/A,,Unknown,60,2013-08-22 04:52:00
10:52 PM,66.0,46.0,48,29.87,-9999.0,East,4.6,-,N/A,,Unknown,80,2013-08-22 05:52:00
11:52 PM,68.0,46.0,45,29.86,-9999.0,NE,5.8,-,N/A,,Unknown,40,2013-08-22 06:52:00